sensor_id;sensor_type;location;lat;lon;timestamp;pressure;altitude;pressure_sealevel;temperature;humidity
47366;BME280;33105;47.964;7.982;2023-04-20T00:00:46;96543.66;;;5.10;95.49
47366;BME280;33105;47.964;7.982;2023-04-20T00:03:48;96539.09;;;5.11;96.32
47366;BME280;33105;47.964;7.982;2023-04-20T00:06:49;96525.78;;;5.09;96.85
47366;BME280;33105;47.964;7.982;2023-04-20T00:09:51;96515.31;;;5.13;97.41
47366;BME280;33105;47.964;7.982;2023-04-20T00:12:52;96503.91;;;5.58;92.40
47366;BME280;33105;47.964;7.982;2023-04-20T00:15:53;96505.44;;;5.65;91.70
47366;BME280;33105;47.964;7.982;2023-04-20T00:18:55;96506.81;;;5.44;92.59
47366;BME280;33105;47.964;7.982;2023-04-20T00:21:56;96497.03;;;5.20;94.56
47366;BME280;33105;47.964;7.982;2023-04-20T00:24:57;96501.28;;;4.93;96.03
47366;BME280;33105;47.964;7.982;2023-04-20T00:27:58;96487.16;;;4.91;97.21
47366;BME280;33105;47.964;7.982;2023-04-20T00:31:00;96494.44;;;4.90;97.98
47366;BME280;33105;47.964;7.982;2023-04-20T00:34:01;96493.22;;;4.74;96.87
47366;BME280;33105;47.964;7.982;2023-04-20T00:37:02;96479.44;;;4.64;95.70
47366;BME280;33105;47.964;7.982;2023-04-20T00:40:04;96476.59;;;4.59;95.58
47366;BME280;33105;47.964;7.982;2023-04-20T00:43:12;96468.72;;;4.58;95.67
47366;BME280;33105;47.964;7.982;2023-04-20T00:46:13;96470.22;;;4.54;96.41
47366;BME280;33105;47.964;7.982;2023-04-20T00:49:15;96463.84;;;4.48;97.02
47366;BME280;33105;47.964;7.982;2023-04-20T00:52:18;96457.97;;;4.51;97.28
47366;BME280;33105;47.964;7.982;2023-04-20T00:55:21;96460.13;;;4.72;96.54
47366;BME280;33105;47.964;7.982;2023-04-20T00:58:22;96449.31;;;4.72;97.16
47366;BME280;33105;47.964;7.982;2023-04-20T01:01:23;96451.91;;;4.67;97.30
47366;BME280;33105;47.964;7.982;2023-04-20T01:04:25;96437.56;;;4.67;97.55
47366;BME280;33105;47.964;7.982;2023-04-20T01:07:26;96438.84;;;4.64;98.19
47366;BME280;33105;47.964;7.982;2023-04-20T01:10:30;96436.50;;;4.68;98.04
47366;BME280;33105;47.964;7.982;2023-04-20T01:13:31;96426.38;;;4.75;97.26
47366;BME280;33105;47.964;7.982;2023-04-20T01:16:32;96424.97;;;4.72;98.08
47366;BME280;33105;47.964;7.982;2023-04-20T01:19:37;96408.50;;;4.74;98.24
47366;BME280;33105;47.964;7.982;2023-04-20T01:22:43;96412.03;;;4.74;97.97
47366;BME280;33105;47.964;7.982;2023-04-20T01:25:46;96412.75;;;4.70;98.78
47366;BME280;33105;47.964;7.982;2023-04-20T01:28:49;96412.97;;;4.68;98.22
47366;BME280;33105;47.964;7.982;2023-04-20T01:31:50;96415.19;;;4.71;98.31
47366;BME280;33105;47.964;7.982;2023-04-20T01:34:53;96413.31;;;4.72;98.78
47366;BME280;33105;47.964;7.982;2023-04-20T01:37:54;96399.22;;;4.82;97.97
47366;BME280;33105;47.964;7.982;2023-04-20T01:40:55;96412.38;;;4.66;98.67
47366;BME280;33105;47.964;7.982;2023-04-20T01:43:57;96400.84;;;4.59;98.67
47366;BME280;33105;47.964;7.982;2023-04-20T01:46:58;96404.75;;;4.63;98.59
47366;BME280;33105;47.964;7.982;2023-04-20T01:49:59;96403.78;;;4.58;99.37
47366;BME280;33105;47.964;7.982;2023-04-20T01:53:00;96389.56;;;4.62;99.55
47366;BME280;33105;47.964;7.982;2023-04-20T01:56:01;96379.75;;;4.50;98.79
47366;BME280;33105;47.964;7.982;2023-04-20T01:59:02;96391.31;;;4.57;98.99
47366;BME280;33105;47.964;7.982;2023-04-20T02:02:04;96392.19;;;4.92;95.85
47366;BME280;33105;47.964;7.982;2023-04-20T02:05:07;96382.25;;;4.74;97.16
47366;BME280;33105;47.964;7.982;2023-04-20T02:08:08;96374.16;;;4.86;95.59
47366;BME280;33105;47.964;7.982;2023-04-20T02:11:11;96367.22;;;4.78;96.00
47366;BME280;33105;47.964;7.982;2023-04-20T02:14:12;96370.25;;;4.70;97.07
47366;BME280;33105;47.964;7.982;2023-04-20T02:17:14;96362.50;;;4.62;97.86
47366;BME280;33105;47.964;7.982;2023-04-20T02:20:15;96355.31;;;4.56;98.55
47366;BME280;33105;47.964;7.982;2023-04-20T02:23:16;96348.25;;;4.55;99.04
47366;BME280;33105;47.964;7.982;2023-04-20T02:26:17;96339.31;;;4.55;99.23
47366;BME280;33105;47.964;7.982;2023-04-20T02:29:19;96345.56;;;4.43;98.65
47366;BME280;33105;47.964;7.982;2023-04-20T02:32:20;96337.69;;;4.42;98.35
47366;BME280;33105;47.964;7.982;2023-04-20T02:35:23;96337.09;;;4.40;98.55
47366;BME280;33105;47.964;7.982;2023-04-20T02:38:26;96327.56;;;4.37;98.52
47366;BME280;33105;47.964;7.982;2023-04-20T02:41:27;96337.22;;;4.45;99.05
47366;BME280;33105;47.964;7.982;2023-04-20T02:44:28;96334.50;;;4.45;98.65
47366;BME280;33105;47.964;7.982;2023-04-20T02:47:29;96324.84;;;4.49;99.26
47366;BME280;33105;47.964;7.982;2023-04-20T02:50:30;96329.44;;;4.49;98.65
47366;BME280;33105;47.964;7.982;2023-04-20T02:53:39;96323.22;;;4.60;98.71
47366;BME280;33105;47.964;7.982;2023-04-20T02:56:53;96334.84;;;4.72;97.00
47366;BME280;33105;47.964;7.982;2023-04-20T02:59:55;96327.53;;;4.49;97.67
47366;BME280;33105;47.964;7.982;2023-04-20T03:03:09;96324.84;;;4.49;98.28
47366;BME280;33105;47.964;7.982;2023-04-20T03:06:10;96329.09;;;4.45;98.13
47366;BME280;33105;47.964;7.982;2023-04-20T03:09:13;96322.97;;;4.61;97.36
47366;BME280;33105;47.964;7.982;2023-04-20T03:12:27;96322.72;;;4.51;97.38
47366;BME280;33105;47.964;7.982;2023-04-20T03:15:31;96316.50;;;4.51;98.22
47366;BME280;33105;47.964;7.982;2023-04-20T03:18:56;96314.03;;;4.37;98.38
47366;BME280;33105;47.964;7.982;2023-04-20T03:21:58;96310.03;;;4.40;98.90
47366;BME280;33105;47.964;7.982;2023-04-20T03:24:59;96306.38;;;4.34;98.72
47366;BME280;33105;47.964;7.982;2023-04-20T03:28:23;96310.00;;;4.28;99.64
47366;BME280;33105;47.964;7.982;2023-04-20T03:31:25;96306.72;;;4.26;98.99
47366;BME280;33105;47.964;7.982;2023-04-20T03:34:28;96304.13;;;4.20;99.58
47366;BME280;33105;47.964;7.982;2023-04-20T03:37:29;96305.28;;;4.24;99.34
47366;BME280;33105;47.964;7.982;2023-04-20T03:40:30;96307.06;;;4.30;98.88
47366;BME280;33105;47.964;7.982;2023-04-20T03:43:32;96300.25;;;4.27;99.56
47366;BME280;33105;47.964;7.982;2023-04-20T03:46:33;96304.59;;;4.28;99.92
47366;BME280;33105;47.964;7.982;2023-04-20T03:49:34;96294.94;;;4.21;98.28
47366;BME280;33105;47.964;7.982;2023-04-20T03:52:35;96295.53;;;4.11;99.00
47366;BME280;33105;47.964;7.982;2023-04-20T03:55:39;96286.28;;;4.19;99.49
47366;BME280;33105;47.964;7.982;2023-04-20T03:58:44;96279.81;;;4.20;99.60
47366;BME280;33105;47.964;7.982;2023-04-20T04:01:55;96280.97;;;4.24;99.26
47366;BME280;33105;47.964;7.982;2023-04-20T04:04:57;96282.97;;;4.28;99.19
47366;BME280;33105;47.964;7.982;2023-04-20T04:07:58;96284.63;;;4.53;97.16
47366;BME280;33105;47.964;7.982;2023-04-20T04:10:59;96290.63;;;4.55;95.97
47366;BME280;33105;47.964;7.982;2023-04-20T04:14:00;96288.16;;;4.53;95.64
47366;BME280;33105;47.964;7.982;2023-04-20T04:17:04;96277.00;;;4.61;95.13
47366;BME280;33105;47.964;7.982;2023-04-20T04:20:09;96283.81;;;4.52;94.48
47366;BME280;33105;47.964;7.982;2023-04-20T04:23:12;96284.50;;;4.24;97.34
47366;BME280;33105;47.964;7.982;2023-04-20T04:26:42;96284.13;;;4.09;98.17
47366;BME280;33105;47.964;7.982;2023-04-20T04:29:43;96284.00;;;4.04;98.17
47366;BME280;33105;47.964;7.982;2023-04-20T04:32:49;96285.38;;;3.83;98.49
47366;BME280;33105;47.964;7.982;2023-04-20T04:35:51;96281.00;;;3.82;99.36
47366;BME280;33105;47.964;7.982;2023-04-20T04:38:53;96284.69;;;3.88;99.39
47366;BME280;33105;47.964;7.982;2023-04-20T04:41:55;96275.16;;;3.97;99.28
47366;BME280;33105;47.964;7.982;2023-04-20T04:45:10;96278.22;;;4.00;99.21
47366;BME280;33105;47.964;7.982;2023-04-20T04:48:15;96277.53;;;3.93;100.00
47366;BME280;33105;47.964;7.982;2023-04-20T04:51:16;96274.09;;;3.98;99.52
47366;BME280;33105;47.964;7.982;2023-04-20T04:54:17;96274.25;;;4.03;99.30
47366;BME280;33105;47.964;7.982;2023-04-20T04:57:18;96283.53;;;4.07;99.53
47366;BME280;33105;47.964;7.982;2023-04-20T05:00:20;96282.47;;;4.08;99.82
47366;BME280;33105;47.964;7.982;2023-04-20T05:03:22;96274.00;;;4.04;98.92
47366;BME280;33105;47.964;7.982;2023-04-20T05:06:23;96276.25;;;4.07;98.82
47366;BME280;33105;47.964;7.982;2023-04-20T05:09:24;96275.56;;;4.24;98.76
47366;BME280;33105;47.964;7.982;2023-04-20T05:12:26;96270.75;;;4.14;98.93
47366;BME280;33105;47.964;7.982;2023-04-20T05:15:27;96271.44;;;4.09;99.23
47366;BME280;33105;47.964;7.982;2023-04-20T05:18:28;96271.09;;;4.18;99.39
47366;BME280;33105;47.964;7.982;2023-04-20T05:21:30;96274.03;;;4.28;99.61
47366;BME280;33105;47.964;7.982;2023-04-20T05:24:32;96275.94;;;4.39;99.60
47366;BME280;33105;47.964;7.982;2023-04-20T05:27:33;96273.00;;;4.40;99.57
47366;BME280;33105;47.964;7.982;2023-04-20T05:30:35;96276.63;;;4.46;99.51
47366;BME280;33105;47.964;7.982;2023-04-20T05:33:36;96268.16;;;4.54;99.70
47366;BME280;33105;47.964;7.982;2023-04-20T05:36:38;96272.03;;;4.47;99.60
47366;BME280;33105;47.964;7.982;2023-04-20T05:39:39;96272.03;;;4.58;99.54
47366;BME280;33105;47.964;7.982;2023-04-20T05:42:41;96270.97;;;4.83;98.70
47366;BME280;33105;47.964;7.982;2023-04-20T05:45:49;96267.91;;;4.91;95.91
47366;BME280;33105;47.964;7.982;2023-04-20T05:48:53;96269.41;;;4.98;94.93
47366;BME280;33105;47.964;7.982;2023-04-20T05:51:55;96276.03;;;4.91;96.15
47366;BME280;33105;47.964;7.982;2023-04-20T05:54:57;96279.19;;;4.88;96.77
47366;BME280;33105;47.964;7.982;2023-04-20T05:57:59;96274.72;;;4.82;97.45
47366;BME280;33105;47.964;7.982;2023-04-20T06:01:00;96275.31;;;4.72;97.82
47366;BME280;33105;47.964;7.982;2023-04-20T06:04:03;96273.56;;;4.77;97.98
47366;BME280;33105;47.964;7.982;2023-04-20T06:07:05;96270.84;;;4.77;98.49
47366;BME280;33105;47.964;7.982;2023-04-20T06:10:06;96273.19;;;4.86;98.32
47366;BME280;33105;47.964;7.982;2023-04-20T06:13:08;96272.78;;;5.17;94.95
47366;BME280;33105;47.964;7.982;2023-04-20T06:16:09;96267.84;;;5.14;95.67
47366;BME280;33105;47.964;7.982;2023-04-20T06:19:10;96276.25;;;5.29;92.42
47366;BME280;33105;47.964;7.982;2023-04-20T06:22:12;96266.53;;;5.17;94.28
47366;BME280;33105;47.964;7.982;2023-04-20T06:25:13;96263.50;;;5.01;95.72
47366;BME280;33105;47.964;7.982;2023-04-20T06:28:18;96266.69;;;4.98;96.46
47366;BME280;33105;47.964;7.982;2023-04-20T06:31:19;96266.38;;;4.95;97.39
47366;BME280;33105;47.964;7.982;2023-04-20T06:34:20;96262.22;;;5.04;97.13
47366;BME280;33105;47.964;7.982;2023-04-20T06:37:21;96268.31;;;5.11;97.39
47366;BME280;33105;47.964;7.982;2023-04-20T06:40:25;96266.38;;;5.23;97.82
47366;BME280;33105;47.964;7.982;2023-04-20T06:43:28;96263.53;;;5.41;95.75
47366;BME280;33105;47.964;7.982;2023-04-20T06:46:29;96268.75;;;5.60;94.55
47366;BME280;33105;47.964;7.982;2023-04-20T06:49:30;96270.03;;;5.57;92.25
47366;BME280;33105;47.964;7.982;2023-04-20T06:52:31;96264.41;;;5.47;93.90
47366;BME280;33105;47.964;7.982;2023-04-20T06:55:33;96260.75;;;5.53;94.58
47366;BME280;33105;47.964;7.982;2023-04-20T06:58:34;96260.03;;;5.58;93.23
47366;BME280;33105;47.964;7.982;2023-04-20T07:01:35;96267.00;;;5.54;91.83
47366;BME280;33105;47.964;7.982;2023-04-20T07:04:36;96270.97;;;5.63;89.65
47366;BME280;33105;47.964;7.982;2023-04-20T07:07:38;96266.16;;;5.53;93.61
47366;BME280;33105;47.964;7.982;2023-04-20T07:10:39;96263.75;;;5.68;92.91
47366;BME280;33105;47.964;7.982;2023-04-20T07:13:40;96264.25;;;5.65;94.26
47366;BME280;33105;47.964;7.982;2023-04-20T07:16:41;96261.59;;;5.70;94.78
47366;BME280;33105;47.964;7.982;2023-04-20T07:19:43;96258.25;;;5.80;95.41
47366;BME280;33105;47.964;7.982;2023-04-20T07:22:44;96261.47;;;5.77;92.61
47366;BME280;33105;47.964;7.982;2023-04-20T07:25:46;96258.25;;;5.80;92.70
47366;BME280;33105;47.964;7.982;2023-04-20T07:28:48;96262.25;;;5.61;93.68
47366;BME280;33105;47.964;7.982;2023-04-20T07:31:49;96252.03;;;5.51;94.02
47366;BME280;33105;47.964;7.982;2023-04-20T07:34:50;96257.94;;;5.48;93.79
47366;BME280;33105;47.964;7.982;2023-04-20T07:37:51;96263.72;;;5.11;89.93
47366;BME280;33105;47.964;7.982;2023-04-20T07:40:52;96259.47;;;5.16;92.50
47366;BME280;33105;47.964;7.982;2023-04-20T07:43:53;96252.19;;;5.44;91.07
47366;BME280;33105;47.964;7.982;2023-04-20T07:46:55;96252.59;;;5.36;91.53
47366;BME280;33105;47.964;7.982;2023-04-20T07:49:57;96240.94;;;5.24;92.13
47366;BME280;33105;47.964;7.982;2023-04-20T07:52:58;96250.97;;;5.24;92.74
47366;BME280;33105;47.964;7.982;2023-04-20T07:55:59;96244.88;;;5.17;91.25
47366;BME280;33105;47.964;7.982;2023-04-20T07:59:01;96256.09;;;4.97;87.22
47366;BME280;33105;47.964;7.982;2023-04-20T08:02:02;96256.09;;;4.97;87.95
47366;BME280;33105;47.964;7.982;2023-04-20T08:05:04;96251.63;;;5.02;89.83
47366;BME280;33105;47.964;7.982;2023-04-20T08:08:05;96254.66;;;5.18;86.37
47366;BME280;33105;47.964;7.982;2023-04-20T08:11:07;96248.50;;;5.22;88.75
47366;BME280;33105;47.964;7.982;2023-04-20T08:14:08;96243.16;;;5.39;89.37
47366;BME280;33105;47.964;7.982;2023-04-20T08:17:09;96236.34;;;5.36;90.55
47366;BME280;33105;47.964;7.982;2023-04-20T08:20:11;96231.72;;;5.37;87.26
47366;BME280;33105;47.964;7.982;2023-04-20T08:23:13;96228.56;;;5.57;88.70
47366;BME280;33105;47.964;7.982;2023-04-20T08:26:14;96224.81;;;5.74;87.30
47366;BME280;33105;47.964;7.982;2023-04-20T08:29:16;96230.81;;;5.60;83.09
47366;BME280;33105;47.964;7.982;2023-04-20T08:32:18;96228.25;;;5.70;81.15
47366;BME280;33105;47.964;7.982;2023-04-20T08:35:22;96222.06;;;5.86;81.89
47366;BME280;33105;47.964;7.982;2023-04-20T08:38:24;96219.66;;;5.44;84.41
47366;BME280;33105;47.964;7.982;2023-04-20T08:41:25;96230.31;;;5.34;82.08
47366;BME280;33105;47.964;7.982;2023-04-20T08:44:26;96233.38;;;5.38;87.88
47366;BME280;33105;47.964;7.982;2023-04-20T08:47:27;96234.84;;;5.45;84.87
47366;BME280;33105;47.964;7.982;2023-04-20T08:50:29;96231.19;;;5.52;82.24
47366;BME280;33105;47.964;7.982;2023-04-20T08:53:31;96232.69;;;5.31;86.64
47366;BME280;33105;47.964;7.982;2023-04-20T08:56:34;96228.38;;;5.46;85.69
47366;BME280;33105;47.964;7.982;2023-04-20T08:59:36;96239.63;;;5.84;86.52
47366;BME280;33105;47.964;7.982;2023-04-20T09:02:48;96240.56;;;6.23;81.45
47366;BME280;33105;47.964;7.982;2023-04-20T09:05:50;96244.47;;;5.81;82.54
47366;BME280;33105;47.964;7.982;2023-04-20T09:08:51;96222.09;;;5.74;83.86
47366;BME280;33105;47.964;7.982;2023-04-20T09:12:05;96226.09;;;5.55;84.15
47366;BME280;33105;47.964;7.982;2023-04-20T09:15:07;96228.66;;;5.90;86.13
47366;BME280;33105;47.964;7.982;2023-04-20T09:18:13;96219.16;;;5.76;82.55
47366;BME280;33105;47.964;7.982;2023-04-20T09:21:14;96221.72;;;5.82;86.41
47366;BME280;33105;47.964;7.982;2023-04-20T09:24:15;96216.50;;;5.93;81.21
47366;BME280;33105;47.964;7.982;2023-04-20T09:27:17;96216.94;;;5.73;84.62
47366;BME280;33105;47.964;7.982;2023-04-20T09:30:19;96217.41;;;5.98;85.07
47366;BME280;33105;47.964;7.982;2023-04-20T09:33:26;96211.38;;;5.79;83.36
47366;BME280;33105;47.964;7.982;2023-04-20T09:36:41;96207.59;;;5.80;85.72
47366;BME280;33105;47.964;7.982;2023-04-20T09:39:44;96206.50;;;5.93;87.88
47366;BME280;33105;47.964;7.982;2023-04-20T09:42:47;96196.16;;;5.78;82.04
47366;BME280;33105;47.964;7.982;2023-04-20T09:45:49;96193.78;;;5.82;81.35
47366;BME280;33105;47.964;7.982;2023-04-20T09:48:50;96194.63;;;5.82;84.66
47366;BME280;33105;47.964;7.982;2023-04-20T09:51:52;96197.69;;;6.03;85.84
47366;BME280;33105;47.964;7.982;2023-04-20T09:54:53;96198.22;;;5.88;84.20
47366;BME280;33105;47.964;7.982;2023-04-20T09:57:55;96193.22;;;5.80;81.26
47366;BME280;33105;47.964;7.982;2023-04-20T10:00:56;96192.34;;;5.91;82.27
47366;BME280;33105;47.964;7.982;2023-04-20T10:03:59;96193.47;;;5.95;81.33
47366;BME280;33105;47.964;7.982;2023-04-20T10:07:00;96194.25;;;5.91;80.56
47366;BME280;33105;47.964;7.982;2023-04-20T10:10:14;96207.31;;;6.10;85.13
47366;BME280;33105;47.964;7.982;2023-04-20T10:13:15;96207.31;;;6.10;81.90
47366;BME280;33105;47.964;7.982;2023-04-20T10:16:19;96205.25;;;6.01;80.97
47366;BME280;33105;47.964;7.982;2023-04-20T10:19:21;96212.88;;;6.04;83.12
47366;BME280;33105;47.964;7.982;2023-04-20T10:22:27;96202.19;;;5.97;81.67
47366;BME280;33105;47.964;7.982;2023-04-20T10:25:32;96206.06;;;6.01;81.86
47366;BME280;33105;47.964;7.982;2023-04-20T10:28:37;96199.41;;;6.09;80.44
47366;BME280;33105;47.964;7.982;2023-04-20T10:31:42;96195.53;;;6.05;81.07
47366;BME280;33105;47.964;7.982;2023-04-20T10:34:43;96197.44;;;6.04;81.40
47366;BME280;33105;47.964;7.982;2023-04-20T10:37:49;96200.72;;;6.06;82.33
47366;BME280;33105;47.964;7.982;2023-04-20T10:40:50;96189.22;;;6.16;83.75
47366;BME280;33105;47.964;7.982;2023-04-20T10:43:51;96197.19;;;6.06;82.42
47366;BME280;33105;47.964;7.982;2023-04-20T10:46:53;96207.13;;;6.00;82.81
47366;BME280;33105;47.964;7.982;2023-04-20T10:50:05;96203.66;;;6.22;85.25
47366;BME280;33105;47.964;7.982;2023-04-20T10:53:21;96195.13;;;6.30;82.87
47366;BME280;33105;47.964;7.982;2023-04-20T10:56:22;96191.75;;;6.39;80.96
47366;BME280;33105;47.964;7.982;2023-04-20T10:59:23;96192.19;;;7.18;75.65
47366;BME280;33105;47.964;7.982;2023-04-20T11:02:25;96196.06;;;7.23;77.71
47366;BME280;33105;47.964;7.982;2023-04-20T11:05:27;96197.94;;;7.22;78.36
47366;BME280;33105;47.964;7.982;2023-04-20T11:08:39;96195.25;;;7.22;79.66
47366;BME280;33105;47.964;7.982;2023-04-20T11:11:40;96191.19;;;7.25;79.05
47366;BME280;33105;47.964;7.982;2023-04-20T11:14:54;96186.50;;;7.20;79.43
47366;BME280;33105;47.964;7.982;2023-04-20T11:18:05;96181.66;;;7.22;80.73
47366;BME280;33105;47.964;7.982;2023-04-20T11:21:07;96179.31;;;7.31;82.70
47366;BME280;33105;47.964;7.982;2023-04-20T11:24:18;96176.75;;;7.46;82.19
47366;BME280;33105;47.964;7.982;2023-04-20T11:27:20;96178.88;;;7.39;82.04
47366;BME280;33105;47.964;7.982;2023-04-20T11:30:24;96170.72;;;7.39;84.19
47366;BME280;33105;47.964;7.982;2023-04-20T11:33:27;96177.88;;;7.77;81.99
47366;BME280;33105;47.964;7.982;2023-04-20T11:36:28;96176.00;;;7.82;83.72
47366;BME280;33105;47.964;7.982;2023-04-20T11:39:30;96169.91;;;8.02;81.16
47366;BME280;33105;47.964;7.982;2023-04-20T11:42:32;96164.06;;;8.20;81.55
47366;BME280;33105;47.964;7.982;2023-04-20T11:45:33;96157.47;;;8.11;82.04
47366;BME280;33105;47.964;7.982;2023-04-20T11:48:34;96169.56;;;7.94;80.13
47366;BME280;33105;47.964;7.982;2023-04-20T11:51:36;96162.41;;;8.51;74.32
47366;BME280;33105;47.964;7.982;2023-04-20T11:54:37;96160.25;;;8.16;78.00
47366;BME280;33105;47.964;7.982;2023-04-20T11:57:38;96156.78;;;7.94;80.72
47366;BME280;33105;47.964;7.982;2023-04-20T12:00:39;96147.78;;;7.57;79.97
47366;BME280;33105;47.964;7.982;2023-04-20T12:03:41;96154.06;;;7.94;79.74
47366;BME280;33105;47.964;7.982;2023-04-20T12:06:42;96146.16;;;7.93;80.37
47366;BME280;33105;47.964;7.982;2023-04-20T12:09:43;96149.63;;;8.20;76.24
47366;BME280;33105;47.964;7.982;2023-04-20T12:12:44;96156.63;;;8.38;79.09
47366;BME280;33105;47.964;7.982;2023-04-20T12:15:46;96149.78;;;8.35;79.75
47366;BME280;33105;47.964;7.982;2023-04-20T12:18:47;96148.78;;;8.51;78.02
47366;BME280;33105;47.964;7.982;2023-04-20T12:21:48;96145.09;;;8.78;73.50
47366;BME280;33105;47.964;7.982;2023-04-20T12:24:49;96143.56;;;9.02;74.75
47366;BME280;33105;47.964;7.982;2023-04-20T12:27:50;96138.44;;;9.11;68.00
47366;BME280;33105;47.964;7.982;2023-04-20T12:30:52;96148.25;;;9.12;65.88
47366;BME280;33105;47.964;7.982;2023-04-20T12:33:53;96147.50;;;8.69;76.39
47366;BME280;33105;47.964;7.982;2023-04-20T12:36:54;96145.91;;;8.73;76.61
47366;BME280;33105;47.964;7.982;2023-04-20T12:39:55;96128.94;;;9.29;69.35
47366;BME280;33105;47.964;7.982;2023-04-20T12:42:57;96139.59;;;9.45;74.28
47366;BME280;33105;47.964;7.982;2023-04-20T12:45:58;96126.00;;;9.76;69.10
47366;BME280;33105;47.964;7.982;2023-04-20T12:48:59;96125.28;;;8.93;71.55
47366;BME280;33105;47.964;7.982;2023-04-20T12:52:01;96127.00;;;9.09;68.86
47366;BME280;33105;47.964;7.982;2023-04-20T12:55:02;96117.47;;;9.27;69.99
47366;BME280;33105;47.964;7.982;2023-04-20T12:58:03;96121.56;;;9.14;74.58
47366;BME280;33105;47.964;7.982;2023-04-20T13:01:05;96125.94;;;9.40;71.27
47366;BME280;33105;47.964;7.982;2023-04-20T13:04:06;96120.81;;;9.59;66.24
47366;BME280;33105;47.964;7.982;2023-04-20T13:07:07;96117.78;;;9.45;67.31
47366;BME280;33105;47.964;7.982;2023-04-20T13:10:09;96117.25;;;9.48;67.23
47366;BME280;33105;47.964;7.982;2023-04-20T13:13:10;96121.66;;;9.65;71.45
47366;BME280;33105;47.964;7.982;2023-04-20T13:16:11;96133.28;;;9.25;67.82
47366;BME280;33105;47.964;7.982;2023-04-20T13:19:12;96131.97;;;9.37;65.52
47366;BME280;33105;47.964;7.982;2023-04-20T13:22:15;96127.84;;;9.30;65.84
47366;BME280;33105;47.964;7.982;2023-04-20T13:25:16;96123.19;;;9.10;69.79
47366;BME280;33105;47.964;7.982;2023-04-20T13:28:17;96133.22;;;8.99;71.77
47366;BME280;33105;47.964;7.982;2023-04-20T13:31:19;96113.94;;;9.26;66.81
47366;BME280;33105;47.964;7.982;2023-04-20T13:34:20;96116.09;;;9.19;72.45
47366;BME280;33105;47.964;7.982;2023-04-20T13:37:21;96110.09;;;9.07;74.15
47366;BME280;33105;47.964;7.982;2023-04-20T13:40:22;96107.88;;;9.04;69.35
47366;BME280;33105;47.964;7.982;2023-04-20T13:43:24;96105.75;;;9.11;72.02
47366;BME280;33105;47.964;7.982;2023-04-20T13:46:25;96104.09;;;9.05;73.05
47366;BME280;33105;47.964;7.982;2023-04-20T13:49:27;96102.84;;;9.63;69.57
47366;BME280;33105;47.964;7.982;2023-04-20T13:52:28;96102.53;;;9.75;63.44
47366;BME280;33105;47.964;7.982;2023-04-20T13:55:30;96109.63;;;9.76;63.11
47366;BME280;33105;47.964;7.982;2023-04-20T13:58:31;96106.09;;;9.70;66.47
47366;BME280;33105;47.964;7.982;2023-04-20T14:01:32;96101.72;;;9.74;63.55
47366;BME280;33105;47.964;7.982;2023-04-20T14:04:33;96090.00;;;9.59;64.48
47366;BME280;33105;47.964;7.982;2023-04-20T14:07:35;96092.13;;;9.26;66.53
47366;BME280;33105;47.964;7.982;2023-04-20T14:10:36;96108.53;;;9.36;66.50
47366;BME280;33105;47.964;7.982;2023-04-20T14:13:39;96114.47;;;9.23;66.90
47366;BME280;33105;47.964;7.982;2023-04-20T14:16:45;96118.84;;;9.29;63.45
47366;BME280;33105;47.964;7.982;2023-04-20T14:19:47;96121.28;;;9.10;65.75
47366;BME280;33105;47.964;7.982;2023-04-20T14:22:49;96123.16;;;9.05;64.24
47366;BME280;33105;47.964;7.982;2023-04-20T14:25:50;96127.88;;;8.67;70.28
47366;BME280;33105;47.964;7.982;2023-04-20T14:28:53;96121.47;;;8.94;67.64
47366;BME280;33105;47.964;7.982;2023-04-20T14:31:54;96120.97;;;9.02;67.63
47366;BME280;33105;47.964;7.982;2023-04-20T14:34:55;96122.09;;;9.16;66.80
47366;BME280;33105;47.964;7.982;2023-04-20T14:37:56;96124.53;;;9.07;64.75
47366;BME280;33105;47.964;7.982;2023-04-20T14:40:57;96135.13;;;8.99;65.75
47366;BME280;33105;47.964;7.982;2023-04-20T14:43:59;96130.44;;;8.84;65.44
47366;BME280;33105;47.964;7.982;2023-04-20T14:47:00;96129.66;;;8.99;65.83
47366;BME280;33105;47.964;7.982;2023-04-20T14:50:01;96126.38;;;8.97;66.22
47366;BME280;33105;47.964;7.982;2023-04-20T14:53:03;96136.16;;;8.93;69.01
47366;BME280;33105;47.964;7.982;2023-04-20T14:56:04;96126.34;;;8.81;69.72
47366;BME280;33105;47.964;7.982;2023-04-20T14:59:05;96132.47;;;8.57;69.14
47366;BME280;33105;47.964;7.982;2023-04-20T15:02:06;96135.03;;;8.31;72.59
47366;BME280;33105;47.964;7.982;2023-04-20T15:05:08;96129.66;;;8.41;71.56
47366;BME280;33105;47.964;7.982;2023-04-20T15:08:09;96132.38;;;8.41;75.06
47366;BME280;33105;47.964;7.982;2023-04-20T15:11:10;96138.50;;;8.59;70.31
47366;BME280;33105;47.964;7.982;2023-04-20T15:14:11;96129.78;;;8.62;71.61
47366;BME280;33105;47.964;7.982;2023-04-20T15:17:12;96122.69;;;8.13;69.47
47366;BME280;33105;47.964;7.982;2023-04-20T15:20:14;96126.25;;;8.61;68.42
47366;BME280;33105;47.964;7.982;2023-04-20T15:23:16;96122.56;;;8.93;66.88
47366;BME280;33105;47.964;7.982;2023-04-20T15:26:18;96118.81;;;9.09;67.54
47366;BME280;33105;47.964;7.982;2023-04-20T15:29:19;96122.75;;;8.66;69.63
47366;BME280;33105;47.964;7.982;2023-04-20T15:32:20;96109.66;;;8.63;68.67
47366;BME280;33105;47.964;7.982;2023-04-20T15:35:21;96112.78;;;9.02;66.36
47366;BME280;33105;47.964;7.982;2023-04-20T15:38:22;96118.75;;;8.89;69.31
47366;BME280;33105;47.964;7.982;2023-04-20T15:41:24;96129.41;;;9.05;65.67
47366;BME280;33105;47.964;7.982;2023-04-20T15:44:25;96144.28;;;8.77;68.07
47366;BME280;33105;47.964;7.982;2023-04-20T15:47:26;96135.31;;;8.82;67.96
47366;BME280;33105;47.964;7.982;2023-04-20T15:50:27;96139.78;;;9.08;64.75
47366;BME280;33105;47.964;7.982;2023-04-20T15:53:29;96135.69;;;9.16;66.08
47366;BME280;33105;47.964;7.982;2023-04-20T15:56:30;96147.63;;;8.95;67.38
47366;BME280;33105;47.964;7.982;2023-04-20T15:59:31;96145.91;;;8.31;68.75
47366;BME280;33105;47.964;7.982;2023-04-20T16:02:32;96141.38;;;8.05;68.76
47366;BME280;33105;47.964;7.982;2023-04-20T16:05:34;96138.63;;;8.00;70.40
47366;BME280;33105;47.964;7.982;2023-04-20T16:08:35;96146.72;;;8.32;69.00
47366;BME280;33105;47.964;7.982;2023-04-20T16:11:38;96156.63;;;8.38;68.46
47366;BME280;33105;47.964;7.982;2023-04-20T16:14:39;96148.28;;;8.23;67.83
47366;BME280;33105;47.964;7.982;2023-04-20T16:17:40;96147.78;;;8.26;68.87